DLH432 EDDF-KORD
Flight info
| Callsign | DLH432 |
|---|---|
| Flight time | N/A |
| Altitude | 36000 |
| Route | OBOKA3W OBOKA Z28 DIBIR DCT BUDIP DCT RAVLO Y70 OTBED L60 PENIL M144 BAGSO DCT NEBIN/M082F360 DCT 5330N02000W 5430N03000W 5430N04000W 5230N05000W DCT SAXAN/N0470F360 N556B ANATI Q812 MIVAX DCT DICEN Q848 LIVBA DCT KISUK DCT LETAK Q824 TAGUM DCT ECK DCT FNT WYNDE3 |
| Aircraft | A343/H-SDE2E3FGHIJ4J5M1RWXY/LB1D1 |
Departure
| Time | 2026-04-19 03:29 |
|---|---|
| Airport | Frankfurt Main Airport (EDDF) |
Arrival
| Time | N/A |
|---|---|
| Airport | Chicago O'Hare International Airport (KORD) |
| Time | Latitude | Longitude | Altitude | Speed | Heading |
|---|---|---|---|---|---|
| 2026-04-19 02:59 | 50.04723 | 8.57544 | 374 ft | 0 kts | 29° |
| 2026-04-19 03:19 | 50.04712 | 8.57534 | 371 ft | 4 kts | 41° |
| 2026-04-19 03:19 | 50.04693 | 8.57506 | 371 ft | 4 kts | 39° |
| 2026-04-19 03:19 | 50.04672 | 8.57480 | 370 ft | 4 kts | 42° |
| 2026-04-19 03:19 | 50.04655 | 8.57450 | 372 ft | 4 kts | 72° |
| 2026-04-19 03:20 | 50.04655 | 8.57428 | 367 ft | 0 kts | 137° |
| 2026-04-19 03:23 | 50.04653 | 8.57430 | 367 ft | 2 kts | 137° |
| 2026-04-19 03:23 | 50.04632 | 8.57473 | 372 ft | 9 kts | 117° |
| 2026-04-19 03:23 | 50.04644 | 8.57630 | 372 ft | 18 kts | 71° |
| 2026-04-19 03:24 | 50.04685 | 8.57806 | 371 ft | 17 kts | 70° |
| 2026-04-19 03:24 | 50.04702 | 8.57899 | 367 ft | 7 kts | 87° |
| 2026-04-19 03:24 | 50.04664 | 8.57991 | 373 ft | 9 kts | 135° |
| 2026-04-19 03:24 | 50.04637 | 8.58043 | 373 ft | 2 kts | 103° |
| 2026-04-19 03:25 | 50.04647 | 8.58130 | 372 ft | 14 kts | 70° |
| 2026-04-19 03:25 | 50.04681 | 8.58278 | 373 ft | 14 kts | 70° |
| 2026-04-19 03:25 | 50.04715 | 8.58421 | 365 ft | 14 kts | 70° |
| 2026-04-19 03:25 | 50.04744 | 8.58543 | 369 ft | 9 kts | 69° |
| 2026-04-19 03:26 | 50.04768 | 8.58640 | 369 ft | 12 kts | 69° |
| 2026-04-19 03:26 | 50.04754 | 8.58740 | 372 ft | 7 kts | 147° |
| 2026-04-19 03:26 | 50.04708 | 8.58761 | 384 ft | 7 kts | 171° |
| 2026-04-19 03:26 | 50.04644 | 8.58757 | 360 ft | 14 kts | 187° |
| 2026-04-19 03:27 | 50.04568 | 8.58697 | 367 ft | 11 kts | 219° |
| 2026-04-19 03:27 | 50.04516 | 8.58631 | 369 ft | 9 kts | 219° |
| 2026-04-19 03:27 | 50.04481 | 8.58559 | 369 ft | 8 kts | 245° |
| 2026-04-19 03:27 | 50.04458 | 8.58471 | 367 ft | 10 kts | 249° |
| 2026-04-19 03:28 | 50.04420 | 8.58319 | 363 ft | 29 kts | 249° |
| 2026-04-19 03:28 | 50.04289 | 8.57766 | 366 ft | 79 kts | 250° |
| 2026-04-19 03:28 | 50.04042 | 8.56743 | 361 ft | 121 kts | 250° |
| 2026-04-19 03:28 | 50.03706 | 8.55328 | 361 ft | 156 kts | 250° |
| 2026-04-19 03:29 | 50.03326 | 8.53705 | 659 ft | 160 kts | 252° |
| 2026-04-19 03:29 | 50.02929 | 8.52064 | 1062 ft | 165 kts | 250° |
| 2026-04-19 03:29 | 50.02461 | 8.50416 | 1456 ft | 169 kts | 238° |
| 2026-04-19 03:29 | 50.01653 | 8.48989 | 1741 ft | 185 kts | 219° |
| 2026-04-19 03:30 | 50.00466 | 8.48057 | 2026 ft | 199 kts | 192° |
| 2026-04-19 03:30 | 49.99071 | 8.47681 | 2469 ft | 211 kts | 187° |
| 2026-04-19 03:30 | 49.97537 | 8.47364 | 2743 ft | 233 kts | 187° |
| 2026-04-19 03:30 | 49.95887 | 8.46924 | 3290 ft | 244 kts | 193° |
| 2026-04-19 03:31 | 49.94239 | 8.46225 | 4005 ft | 247 kts | 197° |
| 2026-04-19 03:31 | 49.92585 | 8.45430 | 4761 ft | 249 kts | 201° |
| 2026-04-19 03:31 | 49.91164 | 8.43997 | 5503 ft | 248 kts | 230° |
| 2026-04-19 03:31 | 49.90182 | 8.41813 | 6356 ft | 247 kts | 238° |
| 2026-04-19 03:32 | 49.89311 | 8.39517 | 7100 ft | 247 kts | 240° |
| 2026-04-19 03:32 | 49.88672 | 8.37050 | 7823 ft | 248 kts | 258° |
| 2026-04-19 03:32 | 49.88596 | 8.34345 | 8450 ft | 255 kts | 271° |
| 2026-04-19 03:32 | 49.88741 | 8.31571 | 9076 ft | 260 kts | 273° |
| 2026-04-19 03:33 | 49.88926 | 8.28757 | 9766 ft | 263 kts | 275° |
| 2026-04-19 03:33 | 49.89430 | 8.26002 | 10346 ft | 273 kts | 292° |
| 2026-04-19 03:33 | 49.90467 | 8.23420 | 10660 ft | 291 kts | 302° |
| 2026-04-19 03:33 | 49.91715 | 8.20835 | 10918 ft | 307 kts | 303° |
| 2026-04-19 03:34 | 49.93031 | 8.18135 | 11198 ft | 321 kts | 303° |
| 2026-04-19 03:34 | 49.94524 | 8.15448 | 11450 ft | 338 kts | 312° |
| 2026-04-19 03:34 | 49.96314 | 8.12958 | 11707 ft | 352 kts | 315° |
| 2026-04-19 03:34 | 49.98211 | 8.10452 | 12044 ft | 362 kts | 315° |
| 2026-04-19 03:35 | 50.00118 | 8.07935 | 12556 ft | 366 kts | 315° |
| 2026-04-19 03:35 | 50.02064 | 8.05354 | 13144 ft | 369 kts | 315° |